Colleyville, Texas
Current Conditions -  °F | °C
As of 2:53 PM on Saturday 20 Dec 2014 (Local Time) from KDFW Reporting Station
Overcast Overcast  
Wind Chill: 46°   Ceiling: 1000
Heat Index: 46°   Visibility: 8mi
Dew Point: 42°   Wind: 3mph
Humidity: 86%   Direction: 60°ENE
Pressure: 30.19"   Gusts: NA
Location:  32.89°N, 97.16°W
Report Text: KDFW 202053Z 06003KT 8SM SCT008 OVC010 08/06 A3019 RMK AO2 SLP221 60000 T00780056 56021
Loading
Personal Weather Stations






























Interactive Weather Map New forecast layout! Learn more

10-Day Weather Forecast

Advertisements
Track Severe Weather on mobile